createdAt,value
2024-03-04T00:00:13.295Z,16.27
2024-03-04T00:02:41.976Z,17.03
2024-03-04T00:05:10.639Z,16.67
2024-03-04T00:07:39.062Z,16.77
2024-03-04T00:10:09.244Z,17.40
2024-03-04T00:12:38.936Z,16.83
2024-03-04T00:15:09.354Z,17.77
2024-03-04T00:17:37.766Z,17.93
2024-03-04T00:20:07.926Z,17.77
2024-03-04T00:22:36.352Z,17.87
2024-03-04T00:25:07.093Z,19.30
2024-03-04T00:27:35.284Z,18.77
2024-03-04T00:30:05.975Z,19.60
2024-03-04T00:32:34.180Z,19.47
2024-03-04T00:35:02.453Z,19.50
2024-03-04T00:37:30.969Z,19.33
2024-03-04T00:39:59.244Z,20.10
2024-03-04T00:42:28.628Z,20.30
2024-03-04T00:44:57.310Z,19.93
2024-03-04T00:47:26.805Z,20.63
2024-03-04T00:49:54.956Z,20.43
2024-03-04T00:52:23.097Z,20.07
2024-03-04T00:54:51.306Z,20.57
2024-03-04T00:57:20.679Z,20.20
2024-03-04T00:59:49.013Z,21.73
2024-03-04T01:02:19.268Z,22.63
2024-03-04T01:04:49.493Z,21.60
2024-03-04T01:07:18.230Z,22.27
2024-03-04T01:09:46.531Z,22.87
2024-03-04T01:12:15.834Z,23.60
2024-03-04T01:14:44.173Z,23.77
2024-03-04T01:17:17.785Z,23.93
2024-03-04T01:19:47.863Z,23.53
2024-03-04T01:22:18.769Z,24.40
2024-03-04T01:24:51.328Z,25.03
2024-03-04T01:27:21.275Z,25.23
2024-03-04T01:29:49.464Z,24.77
2024-03-04T01:32:21.325Z,25.30
2024-03-04T01:34:49.960Z,25.07
2024-03-04T01:37:20.368Z,25.47
2024-03-04T01:39:48.647Z,24.37
2024-03-04T01:42:17.038Z,25.33
2024-03-04T01:44:45.374Z,24.87
2024-03-04T01:47:19.345Z,24.50
2024-03-04T01:49:47.960Z,25.60
2024-03-04T01:52:16.941Z,25.40
2024-03-04T01:54:48.240Z,26.67
2024-03-04T01:57:18.732Z,25.73
2024-03-04T01:59:48.286Z,25.97
2024-03-04T02:02:17.235Z,25.93
2024-03-04T02:04:45.863Z,26.90
2024-03-04T02:07:18.301Z,27.43
2024-03-04T02:09:49.120Z,27.60
2024-03-04T02:12:18.665Z,28.13
2024-03-04T02:14:47.261Z,29.03
2024-03-04T02:17:16.143Z,26.57
2024-03-04T02:19:44.810Z,27.93
2024-03-04T02:22:13.843Z,28.17
2024-03-04T02:24:43.897Z,28.37
2024-03-04T02:27:11.901Z,28.77
2024-03-04T02:29:40.195Z,28.60
2024-03-04T02:32:08.731Z,29.90
2024-03-04T02:34:37.094Z,29.07
2024-03-04T02:37:05.710Z,28.43
2024-03-04T02:39:33.954Z,29.67
2024-03-04T02:42:04.002Z,30.50
2024-03-04T02:44:33.437Z,30.47
2024-03-04T02:47:02.273Z,30.43
2024-03-04T02:49:31.394Z,30.10
2024-03-04T02:51:59.825Z,30.37
2024-03-04T02:54:28.047Z,29.97
2024-03-04T02:56:57.183Z,29.33
2024-03-04T02:59:26.781Z,31.07
2024-03-04T03:01:56.309Z,31.70
2024-03-04T03:04:25.753Z,31.50
2024-03-04T03:06:54.119Z,32.23
2024-03-04T03:09:22.510Z,31.10
2024-03-04T03:11:50.646Z,30.03
2024-03-04T03:14:18.703Z,31.80
2024-03-04T03:16:48.135Z,31.97
2024-03-04T03:19:23.075Z,32.10
2024-03-04T03:21:52.841Z,32.13
2024-03-04T03:24:21.422Z,31.20
2024-03-04T03:26:50.017Z,32.03
2024-03-04T03:29:18.433Z,32.60
2024-03-04T03:31:48.009Z,33.83
2024-03-04T03:34:16.204Z,33.43
2024-03-04T03:36:44.636Z,32.17
2024-03-04T03:39:14.048Z,33.17
2024-03-04T03:41:42.477Z,33.00
2024-03-04T03:44:10.471Z,33.23
2024-03-04T03:46:40.971Z,33.63
2024-03-04T03:49:13.522Z,32.70
2024-03-04T03:51:41.725Z,32.60
2024-03-04T03:54:10.928Z,32.70
2024-03-04T03:56:42.265Z,34.67
2024-03-04T03:59:10.962Z,33.77
2024-03-04T04:01:39.388Z,32.03
2024-03-04T04:04:07.466Z,35.00
2024-03-04T04:06:36.917Z,33.07
2024-03-04T04:09:05.303Z,34.77
2024-03-04T04:11:33.730Z,34.00
2024-03-04T04:14:01.822Z,33.63
2024-03-04T04:16:30.351Z,33.47
2024-03-04T04:18:59.224Z,34.93
2024-03-04T04:21:27.878Z,34.87
2024-03-04T04:23:57.401Z,34.80
2024-03-04T04:26:26.093Z,34.00
2024-03-04T04:28:54.357Z,33.30
2024-03-04T04:31:23.079Z,34.60
2024-03-04T04:33:51.649Z,34.67
2024-03-04T04:36:20.147Z,35.63
2024-03-04T04:38:50.508Z,34.30
2024-03-04T04:41:20.085Z,35.63
2024-03-04T04:43:48.478Z,33.53
2024-03-04T04:46:17.392Z,34.00
2024-03-04T04:48:45.988Z,34.90
2024-03-04T04:51:14.323Z,35.67
2024-03-04T04:53:42.453Z,35.97
2024-03-04T04:56:10.548Z,34.97
2024-03-04T04:58:40.474Z,35.40
2024-03-04T05:01:08.886Z,35.33
2024-03-04T05:03:52.400Z,37.33
2024-03-04T05:06:25.606Z,35.37
2024-03-04T05:08:53.852Z,35.00
2024-03-04T05:11:23.492Z,36.80
2024-03-04T05:13:53.641Z,36.13
2024-03-04T05:16:21.963Z,35.77
2024-03-04T05:18:50.078Z,35.20
2024-03-04T05:21:18.759Z,35.87
2024-03-04T05:23:47.220Z,36.27
2024-03-04T05:26:15.683Z,35.60
2024-03-04T05:28:46.846Z,36.80
2024-03-04T05:31:16.549Z,36.07
2024-03-04T05:33:47.174Z,36.43
2024-03-04T05:36:15.487Z,36.50
2024-03-04T05:38:43.669Z,36.17
2024-03-04T05:41:11.981Z,38.07
2024-03-04T05:43:40.361Z,35.30
2024-03-04T05:46:08.824Z,36.90
2024-03-04T05:48:38.264Z,37.73
2024-03-04T05:51:06.894Z,36.33
2024-03-04T05:53:35.261Z,37.23
2024-03-04T05:56:05.658Z,36.80
2024-03-04T05:58:34.157Z,36.53
2024-03-04T06:01:02.455Z,35.40
2024-03-04T06:03:30.978Z,36.13
2024-03-04T06:06:00.584Z,36.87
2024-03-04T06:08:28.645Z,36.37
2024-03-04T06:10:56.890Z,35.63
2024-03-04T06:13:25.034Z,35.97
2024-03-04T06:15:53.415Z,35.03
2024-03-04T06:18:21.879Z,36.07
2024-03-04T06:20:50.085Z,38.37
2024-03-04T06:23:20.284Z,37.53
2024-03-04T06:25:48.509Z,36.07
2024-03-04T06:28:17.122Z,36.67
2024-03-04T06:30:46.128Z,35.67
2024-03-04T06:33:14.416Z,35.07
2024-03-04T06:35:42.553Z,35.17
2024-03-04T06:38:11.083Z,35.37
2024-03-04T06:40:41.028Z,34.80
2024-03-04T06:43:09.217Z,34.27
2024-03-04T06:45:40.248Z,35.63
2024-03-04T06:48:09.195Z,33.80
2024-03-04T06:50:39.857Z,34.30
2024-03-04T06:53:10.283Z,34.20
2024-03-04T06:55:38.852Z,34.83
2024-03-04T06:58:08.378Z,34.03
2024-03-04T07:00:36.765Z,33.57
2024-03-04T07:03:06.165Z,31.87
2024-03-04T07:05:35.584Z,32.00
2024-03-04T07:08:03.897Z,32.77
2024-03-04T07:10:32.448Z,31.70
2024-03-04T07:13:02.341Z,32.33
2024-03-04T07:15:32.148Z,30.70
2024-03-04T07:18:00.429Z,30.63
2024-03-04T07:20:28.622Z,31.37
2024-03-04T07:22:57.080Z,30.23
2024-03-04T07:25:25.633Z,30.17
2024-03-04T07:27:53.946Z,29.33
2024-03-04T07:30:22.448Z,29.10
2024-03-04T07:32:52.254Z,29.23
2024-03-04T07:35:20.385Z,28.50
2024-03-04T07:37:48.536Z,28.43
2024-03-04T07:40:16.973Z,27.87
2024-03-04T07:42:45.438Z,27.70
2024-03-04T07:45:14.231Z,28.60
2024-03-04T07:47:42.631Z,27.07
2024-03-04T07:50:12.564Z,27.77
2024-03-04T07:52:40.880Z,27.77
2024-03-04T07:55:12.806Z,28.37
2024-03-04T07:57:44.346Z,26.77
2024-03-04T08:00:14.264Z,26.80
2024-03-04T08:02:44.551Z,27.47
2024-03-04T08:05:14.695Z,27.03
2024-03-04T08:07:43.263Z,27.17
2024-03-04T08:10:14.570Z,28.43
2024-03-04T08:12:42.822Z,26.57
2024-03-04T08:15:11.997Z,28.20
2024-03-04T08:17:49.902Z,28.13
2024-03-04T08:20:33.297Z,26.60
2024-03-04T08:23:04.421Z,27.20
2024-03-04T08:25:33.084Z,27.27
2024-03-04T08:28:01.912Z,27.80
2024-03-04T08:30:30.232Z,27.30
2024-03-04T08:32:58.529Z,27.63
2024-03-04T08:35:28.567Z,26.23
2024-03-04T08:37:56.970Z,27.60
2024-03-04T08:40:27.113Z,26.07
2024-03-04T08:42:55.390Z,27.73
2024-03-04T08:45:25.019Z,27.03
2024-03-04T08:47:56.622Z,26.97
2024-03-04T08:50:25.092Z,27.07
2024-03-04T08:52:54.611Z,27.83
2024-03-04T08:55:26.382Z,29.57
2024-03-04T08:57:54.746Z,27.37
2024-03-04T09:00:25.671Z,27.77
2024-03-04T09:02:58.121Z,27.67
2024-03-04T09:05:26.433Z,28.97
2024-03-04T09:07:56.310Z,28.43
2024-03-04T09:10:25.270Z,29.03
2024-03-04T09:12:53.543Z,27.83
2024-03-04T09:15:22.569Z,27.43
2024-03-04T09:17:51.081Z,29.63
2024-03-04T09:20:21.411Z,29.63
2024-03-04T09:22:50.059Z,29.30
2024-03-04T09:25:19.890Z,29.87
2024-03-04T09:27:48.020Z,29.47
2024-03-04T09:30:16.553Z,30.53
2024-03-04T09:32:44.814Z,29.30
2024-03-04T09:35:13.298Z,30.57
2024-03-04T09:37:41.878Z,29.00
2024-03-04T09:40:12.438Z,30.07
2024-03-04T09:42:47.397Z,29.37
2024-03-04T09:45:15.928Z,31.10
2024-03-04T09:47:47.779Z,30.00
2024-03-04T09:50:16.056Z,29.43
2024-03-04T09:52:46.537Z,31.03
2024-03-04T09:55:15.126Z,30.40
2024-03-04T09:57:45.275Z,29.27
2024-03-04T10:00:15.616Z,29.57
2024-03-04T10:02:44.126Z,29.20
2024-03-04T10:05:13.534Z,28.20
2024-03-04T10:07:55.885Z,30.77
2024-03-04T10:10:28.765Z,30.17
2024-03-04T10:13:02.058Z,29.57
2024-03-04T10:15:30.826Z,29.90
2024-03-04T10:18:11.493Z,30.67
2024-03-04T10:20:40.073Z,30.37
2024-03-04T10:23:08.459Z,30.37
2024-03-04T10:25:36.987Z,31.57
2024-03-04T10:28:08.175Z,31.00
2024-03-04T10:30:36.608Z,31.00
2024-03-04T10:33:06.109Z,30.93
2024-03-04T10:35:35.632Z,30.13
2024-03-04T10:38:05.203Z,31.40
2024-03-04T10:40:35.450Z,31.90
2024-03-04T10:43:08.765Z,31.90
2024-03-04T10:45:36.985Z,33.83
2024-03-04T10:48:05.992Z,33.17
2024-03-04T10:50:34.867Z,33.27
2024-03-04T10:53:04.420Z,33.03
2024-03-04T10:55:33.408Z,33.47
2024-03-04T10:58:04.386Z,33.27
2024-03-04T11:00:35.998Z,33.37
2024-03-04T11:03:14.161Z,33.97
2024-03-04T11:05:45.287Z,32.60
2024-03-04T11:08:17.392Z,35.07
2024-03-04T11:10:50.239Z,32.80
2024-03-04T11:13:23.124Z,33.37
2024-03-04T11:15:59.418Z,34.00
2024-03-04T11:18:39.841Z,32.93
2024-03-04T11:21:08.019Z,33.70
2024-03-04T11:23:36.703Z,33.03
2024-03-04T11:26:07.375Z,33.87
2024-03-04T11:28:36.797Z,33.03
2024-03-04T11:31:11.851Z,33.43
2024-03-04T11:33:41.780Z,34.47
2024-03-04T11:36:11.335Z,34.77
2024-03-04T11:38:43.831Z,33.70
2024-03-04T11:41:12.579Z,35.03
2024-03-04T11:43:47.396Z,34.90
2024-03-04T11:46:17.843Z,34.77
2024-03-04T11:48:48.559Z,34.23
2024-03-04T11:51:18.343Z,34.37
2024-03-04T11:53:46.533Z,36.37
2024-03-04T11:56:15.750Z,36.07
2024-03-04T11:58:44.311Z,35.37
2024-03-04T12:01:19.334Z,34.43
2024-03-04T12:03:55.766Z,34.73
2024-03-04T12:06:24.087Z,34.60
2024-03-04T12:09:09.462Z,34.97
2024-03-04T12:11:42.081Z,34.87
2024-03-04T12:14:10.572Z,33.40
2024-03-04T12:16:40.201Z,33.93
2024-03-04T12:19:10.091Z,34.53
2024-03-04T12:21:38.891Z,34.77
2024-03-04T12:24:08.435Z,35.73
2024-03-04T12:26:37.160Z,35.50
2024-03-04T12:29:08.062Z,35.53
2024-03-04T12:31:39.061Z,35.83
2024-03-04T12:34:11.388Z,36.10
2024-03-04T12:36:43.971Z,32.23
2024-03-04T12:39:14.028Z,33.43
2024-03-04T12:41:42.455Z,34.80
2024-03-04T12:44:10.793Z,33.03
2024-03-04T12:46:39.192Z,34.27
2024-03-04T12:49:09.103Z,34.10
2024-03-04T12:51:38.792Z,32.23
2024-03-04T12:54:07.392Z,31.93
2024-03-04T12:56:35.629Z,31.87
2024-03-04T12:59:04.075Z,32.93
2024-03-04T13:01:32.926Z,31.53
2024-03-04T13:04:04.949Z,31.50
2024-03-04T13:06:33.440Z,31.60
2024-03-04T13:09:04.353Z,31.83
2024-03-04T13:11:33.038Z,30.10
2024-03-04T13:14:01.409Z,30.83
2024-03-04T13:16:29.819Z,31.63
2024-03-04T13:19:01.231Z,31.67
2024-03-04T13:21:29.983Z,31.00
2024-03-04T13:24:04.158Z,31.70
2024-03-04T13:26:32.754Z,31.07
2024-03-04T13:29:01.169Z,31.53
2024-03-04T13:31:29.553Z,30.73
2024-03-04T13:33:58.083Z,28.67
2024-03-04T13:36:26.357Z,29.13
2024-03-04T13:38:55.019Z,28.97
2024-03-04T13:41:24.816Z,29.93
2024-03-04T13:43:52.923Z,30.60
2024-03-04T13:46:22.497Z,29.27
2024-03-04T13:48:51.224Z,29.63
2024-03-04T13:51:18.424Z,30.63
2024-03-04T13:53:48.653Z,31.83
2024-03-04T13:56:17.193Z,32.60
2024-03-04T13:58:46.951Z,31.47
2024-03-04T14:01:15.697Z,30.93
2024-03-04T14:03:45.965Z,31.67
2024-03-04T14:06:16.106Z,30.23
2024-03-04T14:08:44.742Z,29.07
2024-03-04T14:11:12.932Z,29.07
2024-03-04T14:13:41.976Z,29.63
2024-03-04T14:16:11.918Z,28.77
2024-03-04T14:18:40.334Z,28.57
2024-03-04T14:21:08.942Z,28.03
2024-03-04T14:23:39.144Z,27.63
2024-03-04T14:26:11.452Z,27.83
2024-03-04T14:28:40.084Z,28.03
2024-03-04T14:31:09.036Z,30.40
2024-03-04T14:33:38.657Z,29.40
2024-03-04T14:36:07.837Z,28.77
2024-03-04T14:38:36.858Z,29.57
2024-03-04T14:41:05.775Z,29.03
2024-03-04T14:43:34.546Z,30.00
2024-03-04T14:46:03.590Z,28.67
2024-03-04T14:48:33.087Z,29.00
2024-03-04T14:51:02.721Z,28.13
2024-03-04T14:53:33.261Z,29.80
2024-03-04T14:56:03.420Z,28.97
2024-03-04T14:58:31.617Z,29.60
2024-03-04T15:00:59.993Z,28.83
2024-03-04T15:03:29.391Z,28.90
2024-03-04T15:05:58.005Z,28.00
2024-03-04T15:08:27.809Z,28.07
2024-03-04T15:10:59.248Z,28.13
2024-03-04T15:13:29.306Z,27.57
2024-03-04T15:15:57.651Z,27.80
2024-03-04T15:18:25.993Z,29.13
2024-03-04T15:20:54.712Z,27.90
2024-03-04T15:23:23.118Z,27.53
2024-03-04T15:25:53.044Z,27.00
2024-03-04T15:28:25.917Z,25.77
2024-03-04T15:30:56.022Z,25.87
2024-03-04T15:33:24.184Z,26.93
2024-03-04T15:35:56.813Z,25.80
2024-03-04T15:38:30.786Z,25.93
2024-03-04T15:41:00.377Z,25.93
2024-03-04T15:43:28.897Z,26.43
2024-03-04T15:45:57.479Z,26.90
2024-03-04T15:48:25.835Z,26.80
2024-03-04T15:50:54.063Z,26.77
2024-03-04T15:53:22.312Z,26.97
2024-03-04T15:55:50.788Z,26.87
2024-03-04T15:58:22.102Z,26.87
2024-03-04T16:00:51.236Z,26.90
2024-03-04T16:03:19.453Z,27.40
2024-03-04T16:05:47.790Z,26.83
2024-03-04T16:08:16.272Z,27.93
2024-03-04T16:10:44.394Z,27.57
2024-03-04T16:13:15.924Z,26.43
2024-03-04T16:15:52.520Z,27.33
2024-03-04T16:18:22.775Z,27.27
2024-03-04T16:20:51.045Z,27.13
2024-03-04T16:23:19.532Z,25.73
2024-03-04T16:25:47.991Z,27.37
2024-03-04T16:28:16.574Z,26.47
2024-03-04T16:30:47.420Z,27.43
2024-03-04T16:33:15.923Z,26.93
2024-03-04T16:35:44.195Z,27.50
2024-03-04T16:38:13.346Z,26.83
2024-03-04T16:40:41.939Z,28.03
2024-03-04T16:43:10.340Z,28.17
2024-03-04T16:45:38.472Z,27.67
2024-03-04T16:48:08.585Z,26.97
2024-03-04T16:50:36.908Z,25.93
2024-03-04T16:53:05.431Z,26.23
2024-03-04T16:55:34.944Z,27.13
2024-03-04T16:58:04.557Z,27.30
2024-03-04T17:00:32.965Z,27.80
2024-03-04T17:03:02.869Z,26.40
2024-03-04T17:05:34.018Z,25.77
2024-03-04T17:08:03.796Z,25.47
2024-03-04T17:10:32.123Z,25.20
2024-03-04T17:13:00.353Z,24.80
2024-03-04T17:15:28.540Z,23.90
2024-03-04T17:17:56.753Z,24.60
2024-03-04T17:20:25.107Z,25.07
2024-03-04T17:22:58.442Z,25.23
2024-03-04T17:25:26.681Z,24.73
2024-03-04T17:27:54.852Z,24.77
2024-03-04T17:30:23.172Z,25.70
2024-03-04T17:32:51.468Z,23.90
2024-03-04T17:35:19.947Z,23.87
2024-03-04T17:37:48.276Z,24.33
2024-03-04T17:40:18.381Z,24.63
2024-03-04T17:42:47.240Z,24.20
2024-03-04T17:45:15.507Z,24.77
2024-03-04T17:47:43.616Z,23.83
2024-03-04T17:50:13.469Z,24.57
2024-03-04T17:52:43.683Z,23.30
2024-03-04T17:55:12.399Z,23.90
2024-03-04T17:57:44.066Z,24.93
2024-03-04T18:00:19.745Z,24.27
2024-03-04T18:02:48.171Z,24.77
2024-03-04T18:05:16.604Z,23.77
2024-03-04T18:07:44.914Z,24.47
2024-03-04T18:10:13.555Z,24.63
2024-03-04T18:12:43.034Z,23.70
2024-03-04T18:15:12.294Z,22.97
2024-03-04T18:17:41.137Z,23.87
2024-03-04T18:20:11.241Z,23.87
2024-03-04T18:22:39.502Z,24.00
2024-03-04T18:25:14.301Z,23.60
2024-03-04T18:27:44.075Z,22.73
2024-03-04T18:30:14.328Z,23.60
2024-03-04T18:32:42.607Z,25.23
2024-03-04T18:35:11.597Z,24.17
2024-03-04T18:37:40.247Z,24.33
2024-03-04T18:40:09.788Z,23.07
2024-03-04T18:42:40.318Z,24.70
2024-03-04T18:45:13.273Z,24.47
2024-03-04T18:47:41.336Z,24.43
2024-03-04T18:50:10.443Z,23.70
2024-03-04T18:52:41.426Z,24.20
2024-03-04T18:55:09.905Z,24.23
2024-03-04T18:57:38.254Z,24.77
2024-03-04T19:00:10.192Z,24.63
2024-03-04T19:02:40.127Z,24.57
2024-03-04T19:05:09.150Z,24.90
2024-03-04T19:07:37.813Z,23.13
2024-03-04T19:10:08.236Z,25.70
2024-03-04T19:12:36.863Z,23.20
2024-03-04T19:15:06.762Z,23.70
2024-03-04T19:17:35.070Z,25.20
2024-03-04T19:20:07.991Z,23.20
2024-03-04T19:22:36.389Z,23.97
2024-03-04T19:25:06.120Z,24.07
2024-03-04T19:27:34.619Z,23.73
2024-03-04T19:30:02.994Z,23.43
2024-03-04T19:32:31.498Z,24.47
2024-03-04T19:35:02.332Z,24.20
2024-03-04T19:37:32.105Z,24.33
2024-03-04T19:40:00.408Z,23.43
2024-03-04T19:42:28.699Z,24.43
2024-03-04T19:44:57.337Z,24.67
2024-03-04T19:47:30.608Z,23.73
2024-03-04T19:49:59.278Z,22.93
2024-03-04T19:52:27.529Z,23.33
2024-03-04T19:54:57.159Z,23.00
2024-03-04T19:57:32.728Z,23.00
2024-03-04T20:00:12.847Z,23.30
2024-03-04T20:02:41.096Z,22.90
2024-03-04T20:05:10.348Z,22.43
2024-03-04T20:07:40.908Z,22.93
2024-03-04T20:10:11.547Z,21.00
2024-03-04T20:12:39.724Z,22.73
2024-03-04T20:15:08.957Z,21.60
2024-03-04T20:17:37.557Z,21.83
2024-03-04T20:20:13.517Z,22.30
2024-03-04T20:22:41.895Z,21.83
2024-03-04T20:25:11.905Z,20.90
2024-03-04T20:27:40.379Z,22.23
2024-03-04T20:30:09.517Z,21.50
2024-03-04T20:32:38.003Z,21.17
2024-03-04T20:35:06.689Z,21.13
2024-03-04T20:37:35.091Z,21.97
2024-03-04T20:40:03.391Z,20.03
2024-03-04T20:42:32.843Z,20.60
2024-03-04T20:45:01.124Z,20.50
2024-03-04T20:47:29.239Z,21.17
2024-03-04T20:49:57.596Z,20.57
2024-03-04T20:52:27.392Z,28.60
2024-03-04T20:54:55.545Z,43.03
2024-03-04T20:57:23.607Z,21.33
2024-03-04T20:59:53.576Z,20.63
2024-03-04T21:02:21.922Z,21.23
2024-03-04T21:04:50.056Z,20.43
2024-03-04T21:07:19.888Z,21.23
2024-03-04T21:09:48.586Z,20.47
2024-03-04T21:12:17.076Z,21.13
2024-03-04T21:14:45.317Z,20.33
2024-03-04T21:17:14.867Z,21.03
2024-03-04T21:19:43.047Z,19.80
2024-03-04T21:22:11.671Z,20.63
2024-03-04T21:24:42.046Z,20.90
2024-03-04T21:27:10.109Z,19.83
2024-03-04T21:29:38.386Z,19.87
2024-03-04T21:32:06.658Z,20.30
2024-03-04T21:34:39.024Z,19.77
2024-03-04T21:37:09.640Z,20.77
2024-03-04T21:39:43.855Z,20.53
2024-03-04T21:42:12.187Z,20.67
2024-03-04T21:44:40.403Z,19.57
2024-03-04T21:47:08.585Z,20.50
2024-03-04T21:49:38.391Z,19.60
2024-03-04T21:52:06.976Z,20.07
2024-03-04T21:54:35.470Z,19.93
2024-03-04T21:57:03.691Z,20.07
2024-03-04T21:59:31.813Z,21.00
2024-03-04T22:01:59.989Z,20.80
2024-03-04T22:04:30.204Z,20.13
2024-03-04T22:06:59.664Z,20.50
2024-03-04T22:09:27.891Z,20.57
2024-03-04T22:11:56.207Z,21.40
2024-03-04T22:14:24.515Z,21.53
2024-03-04T22:16:52.750Z,21.43
2024-03-04T22:19:21.252Z,21.40
2024-03-04T22:21:49.394Z,21.97
2024-03-04T22:24:18.838Z,21.43
2024-03-04T22:26:47.300Z,21.73
2024-03-04T22:29:15.601Z,21.87
2024-03-04T22:31:44.325Z,21.07
2024-03-04T22:34:12.741Z,21.43
2024-03-04T22:36:44.414Z,21.50
2024-03-04T22:39:12.892Z,20.13
2024-03-04T22:41:47.086Z,20.13
2024-03-04T22:44:15.714Z,20.70
2024-03-04T22:46:44.546Z,20.17
2024-03-04T22:49:13.232Z,20.53
2024-03-04T22:51:41.494Z,20.27
2024-03-04T22:54:09.755Z,20.70
2024-03-04T22:56:38.093Z,19.60
2024-03-04T22:59:08.053Z,19.93
2024-03-04T23:01:36.211Z,19.40
2024-03-04T23:04:04.693Z,19.07
2024-03-04T23:06:32.884Z,18.53
2024-03-04T23:09:01.413Z,17.87
2024-03-04T23:11:29.692Z,19.30
2024-03-04T23:13:57.969Z,18.27
2024-03-04T23:16:28.864Z,18.70
2024-03-04T23:18:57.241Z,17.97
2024-03-04T23:21:25.638Z,17.43
2024-03-04T23:23:53.760Z,17.67
2024-03-04T23:26:22.176Z,17.30
2024-03-04T23:28:50.435Z,16.47
2024-03-04T23:31:20.677Z,16.97
2024-03-04T23:33:50.522Z,16.20
2024-03-04T23:36:22.593Z,17.30
2024-03-04T23:38:51.693Z,16.87
2024-03-04T23:41:19.869Z,17.53
2024-03-04T23:43:47.915Z,17.97
2024-03-04T23:46:16.415Z,16.13
2024-03-04T23:48:44.765Z,16.67
2024-03-04T23:51:14.257Z,15.40
2024-03-04T23:53:42.318Z,15.50
2024-03-04T23:56:10.594Z,16.47
2024-03-04T23:58:38.939Z,16.57
